sensor_id;sensor_type;location;lat;lon;timestamp;pressure;altitude;pressure_sealevel;temperature;humidity
70976;BME280;58635;51.198;6.010;2022-10-18T00:01:24;102389.50;;;18.87;67.37
70976;BME280;58635;51.198;6.010;2022-10-18T00:03:50;102390.31;;;18.87;67.51
70976;BME280;58635;51.198;6.010;2022-10-18T00:06:15;102385.28;;;18.86;67.40
70976;BME280;58635;51.198;6.010;2022-10-18T00:08:40;102374.00;;;18.85;67.32
70976;BME280;58635;51.198;6.010;2022-10-18T00:11:06;102386.06;;;18.86;67.26
70976;BME280;58635;51.198;6.010;2022-10-18T00:13:32;102367.72;;;18.86;67.21
70976;BME280;58635;51.198;6.010;2022-10-18T00:16:00;102365.09;;;18.86;67.30
70976;BME280;58635;51.198;6.010;2022-10-18T00:18:26;102371.38;;;18.85;67.26
70976;BME280;58635;51.198;6.010;2022-10-18T00:20:57;102365.09;;;18.86;67.20
70976;BME280;58635;51.198;6.010;2022-10-18T00:23:22;102362.50;;;18.86;67.30
70976;BME280;58635;51.198;6.010;2022-10-18T00:25:48;102360.88;;;18.85;67.43
70976;BME280;58635;51.198;6.010;2022-10-18T00:28:13;102360.06;;;18.85;67.51
70976;BME280;58635;51.198;6.010;2022-10-18T00:30:38;102359.50;;;18.83;67.62
70976;BME280;58635;51.198;6.010;2022-10-18T00:33:04;102363.91;;;18.82;67.34
70976;BME280;58635;51.198;6.010;2022-10-18T00:35:29;102371.75;;;18.82;67.63
70976;BME280;58635;51.198;6.010;2022-10-18T00:37:55;102359.66;;;18.81;67.52
70976;BME280;58635;51.198;6.010;2022-10-18T00:40:20;102359.66;;;18.81;67.27
70976;BME280;58635;51.198;6.010;2022-10-18T00:42:45;102364.91;;;18.81;67.33
70976;BME280;58635;51.198;6.010;2022-10-18T00:45:20;102355.22;;;18.82;67.58
70976;BME280;58635;51.198;6.010;2022-10-18T00:47:50;102361.50;;;18.81;67.27
70976;BME280;58635;51.198;6.010;2022-10-18T00:50:18;102364.13;;;18.81;67.40
70976;BME280;58635;51.198;6.010;2022-10-18T00:52:48;102357.06;;;18.81;67.38
70976;BME280;58635;51.198;6.010;2022-10-18T00:55:15;102352.22;;;18.78;67.59
70976;BME280;58635;51.198;6.010;2022-10-18T00:57:41;102358.28;;;18.79;67.41
70976;BME280;58635;51.198;6.010;2022-10-18T01:00:08;102362.72;;;18.78;67.69
70976;BME280;58635;51.198;6.010;2022-10-18T01:02:35;102361.91;;;18.78;67.77
70976;BME280;58635;51.198;6.010;2022-10-18T01:05:02;102364.53;;;18.78;67.52
70976;BME280;58635;51.198;6.010;2022-10-18T01:15:30;102361.75;;;18.73;67.94
70976;BME280;58635;51.198;6.010;2022-10-18T01:18:25;102364.38;;;18.73;67.69
70976;BME280;58635;51.198;6.010;2022-10-18T01:21:07;102360.16;;;18.72;68.01
70976;BME280;58635;51.198;6.010;2022-10-18T01:26:37;102367.22;;;18.71;67.77
70976;BME280;58635;51.198;6.010;2022-10-18T01:32:29;102365.19;;;18.66;68.04
70976;BME280;58635;51.198;6.010;2022-10-18T01:35:02;102362.34;;;18.68;67.80
70976;BME280;58635;51.198;6.010;2022-10-18T01:37:30;102370.22;;;18.68;67.79
70976;BME280;58635;51.198;6.010;2022-10-18T01:39:57;102372.84;;;18.68;68.32
70976;BME280;58635;51.198;6.010;2022-10-18T01:42:24;102363.97;;;18.69;68.09
70976;BME280;58635;51.198;6.010;2022-10-18T01:44:51;102364.75;;;18.69;67.97
70976;BME280;58635;51.198;6.010;2022-10-18T01:47:18;102368.19;;;18.70;68.16
70976;BME280;58635;51.198;6.010;2022-10-18T01:49:44;102362.16;;;18.69;68.30
70976;BME280;58635;51.198;6.010;2022-10-18T01:52:14;102364.59;;;18.71;68.08
70976;BME280;58635;51.198;6.010;2022-10-18T01:54:42;102368.81;;;18.72;68.32
70976;BME280;58635;51.198;6.010;2022-10-18T02:00:02;102362.75;;;18.72;68.22
70976;BME280;58635;51.198;6.010;2022-10-18T02:11:23;102369.00;;;18.70;68.23
70976;BME280;58635;51.198;6.010;2022-10-18T02:14:04;102369.22;;;18.69;68.02
70976;BME280;58635;51.198;6.010;2022-10-18T02:16:38;102371.03;;;18.68;68.08
70976;BME280;58635;51.198;6.010;2022-10-18T02:19:19;102372.63;;;18.69;68.29
70976;BME280;58635;51.198;6.010;2022-10-18T02:21:50;102371.81;;;18.69;68.39
70976;BME280;58635;51.198;6.010;2022-10-18T02:24:18;102370.81;;;18.70;68.06
70976;BME280;58635;51.198;6.010;2022-10-18T02:26:45;102379.28;;;18.72;68.04
70976;BME280;58635;51.198;6.010;2022-10-18T02:29:11;102379.28;;;18.72;68.02
70976;BME280;58635;51.198;6.010;2022-10-18T02:31:44;102374.66;;;18.74;68.26
70976;BME280;58635;51.198;6.010;2022-10-18T02:36:45;102368.59;;;18.74;68.09
70976;BME280;58635;51.198;6.010;2022-10-18T02:39:14;102365.97;;;18.74;68.26
70976;BME280;58635;51.198;6.010;2022-10-18T02:41:41;102360.75;;;18.74;68.05
70976;BME280;58635;51.198;6.010;2022-10-18T02:44:08;102374.44;;;18.76;68.21
70976;BME280;58635;51.198;6.010;2022-10-18T02:46:33;102374.44;;;18.76;68.08
70976;BME280;58635;51.198;6.010;2022-10-18T02:48:59;102369.19;;;18.76;68.37
70976;BME280;58635;51.198;6.010;2022-10-18T02:51:25;102363.94;;;18.76;68.31
70976;BME280;58635;51.198;6.010;2022-10-18T02:53:50;102360.31;;;18.77;68.09
70976;BME280;58635;51.198;6.010;2022-10-18T02:56:15;102369.19;;;18.76;68.62
70976;BME280;58635;51.198;6.010;2022-10-18T02:58:41;102376.03;;;18.77;68.22
70976;BME280;58635;51.198;6.010;2022-10-18T03:01:06;102363.94;;;18.76;68.45
70976;BME280;58635;51.198;6.010;2022-10-18T03:03:32;102363.94;;;18.76;68.33
70976;BME280;58635;51.198;6.010;2022-10-18T03:05:57;102355.28;;;18.75;68.48
70976;BME280;58635;51.198;6.010;2022-10-18T03:08:23;102357.31;;;18.73;68.43
70976;BME280;58635;51.198;6.010;2022-10-18T03:10:48;102356.72;;;18.71;68.50
70976;BME280;58635;51.198;6.010;2022-10-18T03:13:13;102356.91;;;18.69;68.43
70976;BME280;58635;51.198;6.010;2022-10-18T03:15:39;102357.91;;;18.68;68.36
70976;BME280;58635;51.198;6.010;2022-10-18T03:18:04;102358.72;;;18.69;68.39
70976;BME280;58635;51.198;6.010;2022-10-18T03:20:30;102363.16;;;18.68;68.64
70976;BME280;58635;51.198;6.010;2022-10-18T03:22:55;102363.97;;;18.69;68.47
70976;BME280;58635;51.198;6.010;2022-10-18T03:25:21;102374.66;;;18.67;68.37
70976;BME280;58635;51.198;6.010;2022-10-18T03:27:46;102372.84;;;18.68;68.54
70976;BME280;58635;51.198;6.010;2022-10-18T03:30:12;102366.59;;;18.69;68.68
70976;BME280;58635;51.198;6.010;2022-10-18T03:32:38;102371.03;;;18.68;68.46
70976;BME280;58635;51.198;6.010;2022-10-18T03:35:04;102386.75;;;18.68;68.46
70976;BME280;58635;51.198;6.010;2022-10-18T03:37:30;102382.31;;;18.69;68.93
70976;BME280;58635;51.198;6.010;2022-10-18T03:39:55;102391.78;;;18.70;68.78
70976;BME280;58635;51.198;6.010;2022-10-18T03:42:21;102386.53;;;18.70;68.78
70976;BME280;58635;51.198;6.010;2022-10-18T03:44:46;102378.69;;;18.70;68.76
70976;BME280;58635;51.198;6.010;2022-10-18T03:47:12;102381.28;;;18.70;69.02
70976;BME280;58635;51.198;6.010;2022-10-18T03:49:37;102377.88;;;18.69;68.71
70976;BME280;58635;51.198;6.010;2022-10-18T03:52:03;102373.44;;;18.70;68.76
70976;BME280;58635;51.198;6.010;2022-10-18T03:54:28;102378.69;;;18.70;68.94
70976;BME280;58635;51.198;6.010;2022-10-18T03:56:53;102380.50;;;18.69;68.82
70976;BME280;58635;51.198;6.010;2022-10-18T03:59:19;102377.88;;;18.69;68.82
70976;BME280;58635;51.198;6.010;2022-10-18T04:01:44;102383.13;;;18.69;69.05
70976;BME280;58635;51.198;6.010;2022-10-18T04:04:10;102389.16;;;18.70;69.05
70976;BME280;58635;51.198;6.010;2022-10-18T04:06:35;102387.56;;;18.69;69.12
70976;BME280;58635;51.198;6.010;2022-10-18T04:09:00;102392.78;;;18.69;68.84
70976;BME280;58635;51.198;6.010;2022-10-18T04:11:26;102390.16;;;18.69;68.84
70976;BME280;58635;51.198;6.010;2022-10-18T04:13:51;102394.63;;;18.68;68.79
70976;BME280;58635;51.198;6.010;2022-10-18T04:16:16;102398.84;;;18.69;68.70
70976;BME280;58635;51.198;6.010;2022-10-18T04:18:42;102395.41;;;18.69;68.91
70976;BME280;58635;51.198;6.010;2022-10-18T04:21:07;102397.81;;;18.70;69.14
70976;BME280;58635;51.198;6.010;2022-10-18T04:23:33;102399.63;;;18.70;68.99
70976;BME280;58635;51.198;6.010;2022-10-18T04:25:58;102399.47;;;18.72;69.22
70976;BME280;58635;51.198;6.010;2022-10-18T04:28:23;102402.88;;;18.72;69.12
70976;BME280;58635;51.198;6.010;2022-10-18T04:30:52;102393.19;;;18.73;68.96
70976;BME280;58635;51.198;6.010;2022-10-18T04:33:18;102390.59;;;18.73;69.28
70976;BME280;58635;51.198;6.010;2022-10-18T04:35:44;102389.78;;;18.72;69.13
70976;BME280;58635;51.198;6.010;2022-10-18T04:38:10;102387.97;;;18.73;69.20
70976;BME280;58635;51.198;6.010;2022-10-18T04:40:36;102388.75;;;18.73;69.06
70976;BME280;58635;51.198;6.010;2022-10-18T04:43:01;102384.53;;;18.72;69.00
70976;BME280;58635;51.198;6.010;2022-10-18T04:45:27;102392.19;;;18.74;69.09
70976;BME280;58635;51.198;6.010;2022-10-18T04:47:52;102382.72;;;18.73;69.32
70976;BME280;58635;51.198;6.010;2022-10-18T04:50:17;102375.66;;;18.73;69.49
70976;BME280;58635;51.198;6.010;2022-10-18T04:52:43;102372.22;;;18.73;69.08
70976;BME280;58635;51.198;6.010;2022-10-18T04:55:08;102380.31;;;18.71;68.99
70976;BME280;58635;51.198;6.010;2022-10-18T04:57:34;102366.38;;;18.70;69.03
70976;BME280;58635;51.198;6.010;2022-10-18T04:59:59;102371.81;;;18.69;69.24
70976;BME280;58635;51.198;6.010;2022-10-18T05:02:25;102378.09;;;18.68;69.42
70976;BME280;58635;51.198;6.010;2022-10-18T05:04:50;102382.72;;;18.66;69.21
70976;BME280;58635;51.198;6.010;2022-10-18T05:07:16;102378.50;;;18.65;69.04
70976;BME280;58635;51.198;6.010;2022-10-18T05:09:41;102377.69;;;18.64;69.04
70976;BME280;58635;51.198;6.010;2022-10-18T05:12:07;102384.75;;;18.64;69.28
70976;BME280;58635;51.198;6.010;2022-10-18T05:14:32;102382.94;;;18.64;68.99
70976;BME280;58635;51.198;6.010;2022-10-18T05:16:57;102386.56;;;18.63;69.02
70976;BME280;58635;51.198;6.010;2022-10-18T05:19:23;102381.31;;;18.63;69.00
70976;BME280;58635;51.198;6.010;2022-10-18T05:21:48;102384.13;;;18.62;69.29
70976;BME280;58635;51.198;6.010;2022-10-18T05:24:14;102385.97;;;18.61;68.94
70976;BME280;58635;51.198;6.010;2022-10-18T05:26:39;102375.47;;;18.61;69.09
70976;BME280;58635;51.198;6.010;2022-10-18T05:29:05;102374.69;;;18.61;69.14
70976;BME280;58635;51.198;6.010;2022-10-18T05:31:30;102383.34;;;18.61;69.13
70976;BME280;58635;51.198;6.010;2022-10-18T05:33:56;102390.59;;;18.59;68.97
70976;BME280;58635;51.198;6.010;2022-10-18T05:36:21;102395.84;;;18.59;69.27
70976;BME280;58635;51.198;6.010;2022-10-18T05:38:46;102394.22;;;18.58;68.94
70976;BME280;58635;51.198;6.010;2022-10-18T05:41:12;102396.66;;;18.60;68.99
70976;BME280;58635;51.198;6.010;2022-10-18T05:43:39;102397.66;;;18.59;68.94
70976;BME280;58635;51.198;6.010;2022-10-18T05:46:04;102394.41;;;18.57;69.05
70976;BME280;58635;51.198;6.010;2022-10-18T05:48:32;102398.84;;;18.56;69.15
70976;BME280;58635;51.198;6.010;2022-10-18T05:50:58;102398.06;;;18.56;69.19
70976;BME280;58635;51.198;6.010;2022-10-18T05:53:23;102395.44;;;18.56;69.29
70976;BME280;58635;51.198;6.010;2022-10-18T05:55:49;102403.28;;;18.56;69.19
70976;BME280;58635;51.198;6.010;2022-10-18T05:58:14;102411.97;;;18.56;69.55
70976;BME280;58635;51.198;6.010;2022-10-18T06:00:40;102421.63;;;18.56;69.42
70976;BME280;58635;51.198;6.010;2022-10-18T06:03:06;102421.44;;;18.57;69.44
70976;BME280;58635;51.198;6.010;2022-10-18T06:05:31;102421.44;;;18.57;69.00
70976;BME280;58635;51.198;6.010;2022-10-18T06:07:57;102426.66;;;18.57;69.48
70976;BME280;58635;51.198;6.010;2022-10-18T06:10:22;102433.53;;;18.58;69.65
70976;BME280;58635;51.198;6.010;2022-10-18T06:12:48;102446.63;;;18.58;69.65
70976;BME280;58635;51.198;6.010;2022-10-18T06:15:14;102452.69;;;18.59;69.62
70976;BME280;58635;51.198;6.010;2022-10-18T06:17:39;102449.88;;;18.60;69.31
70976;BME280;58635;51.198;6.010;2022-10-18T06:20:05;102451.47;;;18.61;69.67
70976;BME280;58635;51.198;6.010;2022-10-18T06:22:32;102453.88;;;18.63;69.57
70976;BME280;58635;51.198;6.010;2022-10-18T06:24:57;102448.66;;;18.63;69.54
70976;BME280;58635;51.198;6.010;2022-10-18T06:27:22;102448.47;;;18.64;69.36
70976;BME280;58635;51.198;6.010;2022-10-18T06:29:48;102446.66;;;18.65;69.65
70976;BME280;58635;51.198;6.010;2022-10-18T06:32:13;102445.41;;;18.67;69.35
70976;BME280;58635;51.198;6.010;2022-10-18T06:34:39;102442.81;;;18.67;69.77
70976;BME280;58635;51.198;6.010;2022-10-18T06:37:04;102443.41;;;18.69;69.60
70976;BME280;58635;51.198;6.010;2022-10-18T06:39:29;102448.47;;;18.71;69.41
70976;BME280;58635;51.198;6.010;2022-10-18T06:41:55;102446.44;;;18.73;69.35
70976;BME280;58635;51.198;6.010;2022-10-18T06:44:20;102449.66;;;18.75;69.61
70976;BME280;58635;51.198;6.010;2022-10-18T06:46:47;102451.03;;;18.78;69.61
70976;BME280;58635;51.198;6.010;2022-10-18T06:49:13;102444.78;;;18.79;69.41
70976;BME280;58635;51.198;6.010;2022-10-18T06:51:40;102441.94;;;18.80;69.26
70976;BME280;58635;51.198;6.010;2022-10-18T06:54:06;102444.38;;;18.82;69.25
70976;BME280;58635;51.198;6.010;2022-10-18T06:56:32;102447.78;;;18.82;69.05
70976;BME280;58635;51.198;6.010;2022-10-18T06:58:57;102445.78;;;18.84;69.46
70976;BME280;58635;51.198;6.010;2022-10-18T07:01:22;102448.41;;;18.84;69.36
70976;BME280;58635;51.198;6.010;2022-10-18T07:03:50;102451.63;;;18.86;69.26
70976;BME280;58635;51.198;6.010;2022-10-18T07:06:17;102448.78;;;18.88;69.44
70976;BME280;58635;51.198;6.010;2022-10-18T07:08:42;102460.66;;;18.90;69.41
70976;BME280;58635;51.198;6.010;2022-10-18T07:11:16;102460.47;;;18.92;69.50
70976;BME280;58635;51.198;6.010;2022-10-18T07:13:43;102466.13;;;18.95;69.11
70976;BME280;58635;51.198;6.010;2022-10-18T07:16:13;102468.53;;;18.97;69.31
70976;BME280;58635;51.198;6.010;2022-10-18T07:18:44;102480.41;;;18.99;69.01
70976;BME280;58635;51.198;6.010;2022-10-18T07:21:12;102480.78;;;19.03;69.18
70976;BME280;58635;51.198;6.010;2022-10-18T07:23:40;102488.25;;;19.06;69.05
70976;BME280;58635;51.198;6.010;2022-10-18T07:26:18;102490.25;;;19.11;69.13
70976;BME280;58635;51.198;6.010;2022-10-18T07:28:46;102488.22;;;19.13;68.94
70976;BME280;58635;51.198;6.010;2022-10-18T07:31:12;102490.63;;;19.14;69.02
70976;BME280;58635;51.198;6.010;2022-10-18T07:33:37;102501.31;;;19.19;68.89
70976;BME280;58635;51.198;6.010;2022-10-18T07:36:05;102504.31;;;19.23;68.83
70976;BME280;58635;51.198;6.010;2022-10-18T07:38:31;102509.72;;;19.28;68.87
70976;BME280;58635;51.198;6.010;2022-10-18T07:41:00;102520.63;;;19.32;68.95
70976;BME280;58635;51.198;6.010;2022-10-18T07:43:27;102527.88;;;19.36;68.97
70976;BME280;58635;51.198;6.010;2022-10-18T07:45:57;102532.69;;;19.39;68.58
70976;BME280;58635;51.198;6.010;2022-10-18T07:48:24;102526.44;;;19.40;68.58
70976;BME280;58635;51.198;6.010;2022-10-18T07:50:50;102529.47;;;19.44;68.52
70976;BME280;58635;51.198;6.010;2022-10-18T07:53:15;102536.31;;;19.45;68.48
70976;BME280;58635;51.198;6.010;2022-10-18T07:55:41;102536.31;;;19.45;68.61
70976;BME280;58635;51.198;6.010;2022-10-18T07:58:07;102537.72;;;19.47;68.34
70976;BME280;58635;51.198;6.010;2022-10-18T08:00:33;102541.34;;;19.46;68.19
70976;BME280;58635;51.198;6.010;2022-10-18T08:02:58;102532.66;;;19.46;68.27
70976;BME280;58635;51.198;6.010;2022-10-18T08:05:25;102547.63;;;19.45;68.40
70976;BME280;58635;51.198;6.010;2022-10-18T08:07:52;102557.09;;;19.46;68.25
70976;BME280;58635;51.198;6.010;2022-10-18T08:10:18;102556.88;;;19.48;68.04
70976;BME280;58635;51.198;6.010;2022-10-18T08:12:44;102550.41;;;19.50;68.15
70976;BME280;58635;51.198;6.010;2022-10-18T08:15:10;102557.88;;;19.53;68.19
70976;BME280;58635;51.198;6.010;2022-10-18T08:17:35;102554.25;;;19.54;68.03
70976;BME280;58635;51.198;6.010;2022-10-18T08:20:00;102560.47;;;19.60;68.16
70976;BME280;58635;51.198;6.010;2022-10-18T08:22:26;102568.53;;;19.65;68.11
70976;BME280;58635;51.198;6.010;2022-10-18T08:24:51;102562.22;;;19.73;67.81
70976;BME280;58635;51.198;6.010;2022-10-18T08:27:17;102563.59;;;19.82;67.85
70976;BME280;58635;51.198;6.010;2022-10-18T08:29:42;102559.72;;;19.91;67.42
70976;BME280;58635;51.198;6.010;2022-10-18T08:32:08;102571.53;;;20.00;67.32
70976;BME280;58635;51.198;6.010;2022-10-18T08:34:34;102577.13;;;20.10;67.04
70976;BME280;58635;51.198;6.010;2022-10-18T08:37:00;102580.31;;;20.19;66.78
70976;BME280;58635;51.198;6.010;2022-10-18T08:39:25;102579.66;;;20.24;66.59
70976;BME280;58635;51.198;6.010;2022-10-18T08:42:10;102567.94;;;20.26;66.61
70976;BME280;58635;51.198;6.010;2022-10-18T08:44:43;102570.34;;;20.28;66.51
70976;BME280;58635;51.198;6.010;2022-10-18T08:47:32;102574.00;;;20.27;66.36
70976;BME280;58635;51.198;6.010;2022-10-18T08:50:03;102582.91;;;20.26;66.38
70976;BME280;58635;51.198;6.010;2022-10-18T08:52:33;102583.09;;;20.24;66.38
70976;BME280;58635;51.198;6.010;2022-10-18T08:55:15;102585.13;;;20.22;66.33
70976;BME280;58635;51.198;6.010;2022-10-18T08:57:48;102592.22;;;20.22;66.50
70976;BME280;58635;51.198;6.010;2022-10-18T09:00:22;102595.66;;;20.22;66.39
70976;BME280;58635;51.198;6.010;2022-10-18T09:03:01;102592.66;;;20.19;66.23
70976;BME280;58635;51.198;6.010;2022-10-18T09:05:53;102596.13;;;20.12;66.21
70976;BME280;58635;51.198;6.010;2022-10-18T09:08:45;102602.22;;;20.06;66.37
70976;BME280;58635;51.198;6.010;2022-10-18T09:22:13;102617.28;;;19.93;66.67
70976;BME280;58635;51.198;6.010;2022-10-18T09:25:25;102624.94;;;19.94;66.42
70976;BME280;58635;51.198;6.010;2022-10-18T09:27:56;102618.44;;;19.97;66.45
70976;BME280;58635;51.198;6.010;2022-10-18T09:30:40;102622.69;;;19.98;66.48
70976;BME280;58635;51.198;6.010;2022-10-18T09:34:02;102623.47;;;19.98;66.19
70976;BME280;58635;51.198;6.010;2022-10-18T09:36:05;102619.84;;;19.99;66.15
70976;BME280;58635;51.198;6.010;2022-10-18T09:38:40;102625.91;;;20.00;66.09
70976;BME280;58635;51.198;6.010;2022-10-18T09:41:12;102633.59;;;20.01;66.13
70976;BME280;58635;51.198;6.010;2022-10-18T09:43:53;102624.06;;;20.00;66.08
70976;BME280;58635;51.198;6.010;2022-10-18T09:46:23;102627.31;;;20.02;65.79
70976;BME280;58635;51.198;6.010;2022-10-18T09:49:03;102632.56;;;20.02;65.77
70976;BME280;58635;51.198;6.010;2022-10-18T09:51:37;102636.22;;;20.01;65.81
70976;BME280;58635;51.198;6.010;2022-10-18T09:54:35;102636.63;;;19.98;65.78
70976;BME280;58635;51.198;6.010;2022-10-18T10:02:00;102641.06;;;19.98;65.88
70976;BME280;58635;51.198;6.010;2022-10-18T10:04:26;102638.66;;;19.96;65.68
70976;BME280;58635;51.198;6.010;2022-10-18T10:06:53;102643.09;;;19.96;65.63
70976;BME280;58635;51.198;6.010;2022-10-18T10:09:30;102653.41;;;19.97;65.72
70976;BME280;58635;51.198;6.010;2022-10-18T10:12:00;102653.41;;;19.97;65.81
70976;BME280;58635;51.198;6.010;2022-10-18T10:14:28;102647.13;;;19.98;65.88
70976;BME280;58635;51.198;6.010;2022-10-18T10:17:01;102650.56;;;19.99;65.88
70976;BME280;58635;51.198;6.010;2022-10-18T10:22:26;102648.50;;;20.01;65.46
70976;BME280;58635;51.198;6.010;2022-10-18T10:24:53;102649.94;;;20.03;65.44
70976;BME280;58635;51.198;6.010;2022-10-18T10:27:32;102650.69;;;20.10;65.15
70976;BME280;58635;51.198;6.010;2022-10-18T10:30:01;102640.38;;;20.15;65.07
70976;BME280;58635;51.198;6.010;2022-10-18T10:32:43;102657.31;;;20.20;64.96
70976;BME280;58635;51.198;6.010;2022-10-18T10:35:24;102656.88;;;20.23;64.96
70976;BME280;58635;51.198;6.010;2022-10-18T10:37:53;102653.22;;;20.24;64.99
70976;BME280;58635;51.198;6.010;2022-10-18T10:40:19;102653.03;;;20.25;64.93
70976;BME280;58635;51.198;6.010;2022-10-18T10:45:55;102662.13;;;20.23;64.81
70976;BME280;58635;51.198;6.010;2022-10-18T10:48:24;102658.69;;;20.22;64.70
70976;BME280;58635;51.198;6.010;2022-10-18T10:51:06;102655.88;;;20.24;64.59
70976;BME280;58635;51.198;6.010;2022-10-18T10:53:37;102662.94;;;20.23;64.51
70976;BME280;58635;51.198;6.010;2022-10-18T10:56:05;102654.03;;;20.24;64.73
70976;BME280;58635;51.198;6.010;2022-10-18T10:58:36;102647.00;;;20.25;64.53
70976;BME280;58635;51.198;6.010;2022-10-18T11:01:22;102652.25;;;20.25;64.53
70976;BME280;58635;51.198;6.010;2022-10-18T11:03:50;102658.09;;;20.27;64.58
70976;BME280;58635;51.198;6.010;2022-10-18T11:06:32;102654.44;;;20.28;64.30
70976;BME280;58635;51.198;6.010;2022-10-18T11:09:02;102649.81;;;20.23;64.32
70976;BME280;58635;51.198;6.010;2022-10-18T11:11:40;102657.50;;;20.25;64.39
70976;BME280;58635;51.198;6.010;2022-10-18T11:16:53;102658.47;;;20.30;64.31
70976;BME280;58635;51.198;6.010;2022-10-18T11:22:11;102661.25;;;20.42;64.08
70976;BME280;58635;51.198;6.010;2022-10-18T11:24:37;102668.25;;;20.48;63.94
70976;BME280;58635;51.198;6.010;2022-10-18T11:27:59;102667.19;;;20.56;63.62
70976;BME280;58635;51.198;6.010;2022-10-18T11:32:48;102658.16;;;20.77;62.85
70976;BME280;58635;51.198;6.010;2022-10-18T11:38:15;102662.00;;;20.99;62.46
70976;BME280;58635;51.198;6.010;2022-10-18T11:41:01;102664.13;;;21.09;62.11
70976;BME280;58635;51.198;6.010;2022-10-18T11:43:52;102675.16;;;21.17;61.96
70976;BME280;58635;51.198;6.010;2022-10-18T11:52:14;102667.03;;;21.19;61.49
70976;BME280;58635;51.198;6.010;2022-10-18T11:54:57;102667.94;;;21.13;61.59
70976;BME280;58635;51.198;6.010;2022-10-18T12:01:00;102665.56;;;21.05;61.56
70976;BME280;58635;51.198;6.010;2022-10-18T12:06:18;102661.56;;;21.02;61.84
70976;BME280;58635;51.198;6.010;2022-10-18T12:08:48;102664.41;;;21.00;61.88
70976;BME280;58635;51.198;6.010;2022-10-18T12:11:18;102658.34;;;21.00;61.44
70976;BME280;58635;51.198;6.010;2022-10-18T12:13:51;102660.38;;;20.98;61.28
70976;BME280;58635;51.198;6.010;2022-10-18T12:16:21;102660.38;;;20.98;61.38
70976;BME280;58635;51.198;6.010;2022-10-18T12:18:53;102651.84;;;21.02;61.46
70976;BME280;58635;51.198;6.010;2022-10-18T12:21:22;102649.38;;;21.08;61.27
70976;BME280;58635;51.198;6.010;2022-10-18T12:24:20;102645.63;;;21.15;60.76
70976;BME280;58635;51.198;6.010;2022-10-18T12:26:49;102636.06;;;21.21;60.69
70976;BME280;58635;51.198;6.010;2022-10-18T12:29:26;102637.84;;;21.27;60.25
70976;BME280;58635;51.198;6.010;2022-10-18T12:31:58;102638.19;;;21.30;60.15
70976;BME280;58635;51.198;6.010;2022-10-18T12:34:40;102636.38;;;21.31;60.22
70976;BME280;58635;51.198;6.010;2022-10-18T12:42:04;102632.94;;;21.49;59.71
70976;BME280;58635;51.198;6.010;2022-10-18T12:44:32;102638.50;;;21.59;59.55
70976;BME280;58635;51.198;6.010;2022-10-18T12:47:00;102637.59;;;21.65;59.32
70976;BME280;58635;51.198;6.010;2022-10-18T12:49:30;102635.31;;;21.69;59.40
70976;BME280;58635;51.198;6.010;2022-10-18T12:52:22;102628.00;;;21.71;59.09
70976;BME280;58635;51.198;6.010;2022-10-18T12:58:00;102628.72;;;21.78;59.05
70976;BME280;58635;51.198;6.010;2022-10-18T13:18:57;102606.03;;;21.77;58.01
70976;BME280;58635;51.198;6.010;2022-10-18T13:24:16;102614.88;;;21.82;57.82
70976;BME280;58635;51.198;6.010;2022-10-18T13:43:52;102603.84;;;21.74;57.48
70976;BME280;58635;51.198;6.010;2022-10-18T13:48:54;102609.03;;;21.80;57.15
70976;BME280;58635;51.198;6.010;2022-10-18T13:51:53;102609.63;;;21.82;56.79
70976;BME280;58635;51.198;6.010;2022-10-18T14:05:53;102610.59;;;21.70;56.66
70976;BME280;58635;51.198;6.010;2022-10-18T14:11:33;102609.53;;;21.59;57.14
70976;BME280;58635;51.198;6.010;2022-10-18T14:14:27;102603.31;;;21.53;56.81
70976;BME280;58635;51.198;6.010;2022-10-18T14:19:43;102597.91;;;21.48;57.35
70976;BME280;58635;51.198;6.010;2022-10-18T14:22:23;102604.44;;;21.46;56.92
70976;BME280;58635;51.198;6.010;2022-10-18T14:24:53;102596.94;;;21.43;57.21
70976;BME280;58635;51.198;6.010;2022-10-18T14:29:49;102600.84;;;21.40;57.10
70976;BME280;58635;51.198;6.010;2022-10-18T14:32:24;102601.06;;;21.39;56.89
70976;BME280;58635;51.198;6.010;2022-10-18T14:34:51;102609.19;;;21.37;57.14
70976;BME280;58635;51.198;6.010;2022-10-18T14:37:25;102599.09;;;21.34;56.41
70976;BME280;58635;51.198;6.010;2022-10-18T14:39:51;102601.97;;;21.33;56.87
70976;BME280;58635;51.198;6.010;2022-10-18T14:42:22;102601.34;;;21.30;57.18
70976;BME280;58635;51.198;6.010;2022-10-18T14:44:49;102601.56;;;21.29;56.98
70976;BME280;58635;51.198;6.010;2022-10-18T14:47:27;102604.66;;;21.26;56.75
70976;BME280;58635;51.198;6.010;2022-10-18T14:49:55;102608.50;;;21.23;57.02
70976;BME280;58635;51.198;6.010;2022-10-18T14:52:29;102600.25;;;21.20;56.87
70976;BME280;58635;51.198;6.010;2022-10-18T14:54:57;102604.09;;;21.17;57.23
70976;BME280;58635;51.198;6.010;2022-10-18T14:57:41;102610.41;;;21.16;56.96
70976;BME280;58635;51.198;6.010;2022-10-18T15:00:08;102608.78;;;21.15;57.02
70976;BME280;58635;51.198;6.010;2022-10-18T15:02:41;102613.25;;;21.15;56.65
70976;BME280;58635;51.198;6.010;2022-10-18T15:05:13;102616.69;;;21.15;56.77
70976;BME280;58635;51.198;6.010;2022-10-18T15:07:43;102613.47;;;21.13;56.53
70976;BME280;58635;51.198;6.010;2022-10-18T15:10:15;102612.66;;;21.13;56.77
70976;BME280;58635;51.198;6.010;2022-10-18T15:12:43;102611.06;;;21.12;57.03
70976;BME280;58635;51.198;6.010;2022-10-18T15:15:24;102607.06;;;21.09;56.95
70976;BME280;58635;51.198;6.010;2022-10-18T15:17:52;102616.97;;;21.07;56.96
70976;BME280;58635;51.198;6.010;2022-10-18T15:22:52;102602.19;;;21.06;56.88
70976;BME280;58635;51.198;6.010;2022-10-18T15:25:23;102606.88;;;21.04;56.63
70976;BME280;58635;51.198;6.010;2022-10-18T15:27:55;102605.50;;;21.01;56.77